createdAt,value
2023-03-31T00:01:44.326Z,2.50
2023-03-31T00:04:13.354Z,3.20
2023-03-31T00:06:44.228Z,2.87
2023-03-31T00:09:15.972Z,3.00
2023-03-31T00:11:43.778Z,2.77
2023-03-31T00:14:10.445Z,2.80
2023-03-31T00:16:37.599Z,2.33
2023-03-31T00:19:04.840Z,2.53
2023-03-31T00:21:34.152Z,2.87
2023-03-31T00:24:02.239Z,3.00
2023-03-31T00:26:29.365Z,2.60
2023-03-31T00:28:56.537Z,3.10
2023-03-31T00:31:23.165Z,2.83
2023-03-31T00:33:49.824Z,2.87
2023-03-31T00:36:27.330Z,2.67
2023-03-31T00:39:00.840Z,2.80
2023-03-31T00:41:28.586Z,2.50
2023-03-31T00:44:13.697Z,1.77
2023-03-31T00:46:57.133Z,2.20
2023-03-31T00:49:28.385Z,2.47
2023-03-31T00:51:56.996Z,2.10
2023-03-31T00:54:25.980Z,1.60
2023-03-31T00:56:55.591Z,2.23
2023-03-31T00:59:24.149Z,2.27
2023-03-31T01:01:52.827Z,2.50
2023-03-31T01:04:23.971Z,2.40
2023-03-31T01:07:03.587Z,2.33
2023-03-31T01:09:34.951Z,2.30
2023-03-31T01:12:07.265Z,1.70
2023-03-31T01:14:34.167Z,2.63
2023-03-31T01:17:00.708Z,1.80
2023-03-31T01:19:34.797Z,2.10
2023-03-31T01:22:14.488Z,2.17
2023-03-31T01:24:47.549Z,2.13
2023-03-31T01:27:23.196Z,2.40
2023-03-31T01:30:08.515Z,2.60
2023-03-31T01:32:52.796Z,2.47
2023-03-31T01:35:38.441Z,1.90
2023-03-31T01:38:20.035Z,3.20
2023-03-31T01:41:05.904Z,3.03
2023-03-31T01:43:32.346Z,2.30
2023-03-31T01:46:01.877Z,2.40
2023-03-31T01:48:30.200Z,2.63
2023-03-31T01:50:58.068Z,2.77
2023-03-31T01:53:36.070Z,2.97
2023-03-31T01:56:06.068Z,3.50
2023-03-31T01:58:36.245Z,2.47
2023-03-31T02:01:05.893Z,3.20
2023-03-31T02:03:38.759Z,2.57
2023-03-31T02:06:09.089Z,2.47
2023-03-31T02:08:41.754Z,2.50
2023-03-31T02:11:08.289Z,1.27
2023-03-31T02:13:37.243Z,3.27
2023-03-31T02:16:06.941Z,1.73
2023-03-31T02:18:38.326Z,2.20
2023-03-31T02:21:09.871Z,2.27
2023-03-31T02:23:37.775Z,2.10
2023-03-31T02:26:04.299Z,2.17
2023-03-31T02:28:31.101Z,2.07
2023-03-31T02:31:03.731Z,2.33
2023-03-31T02:33:30.213Z,2.17
2023-03-31T02:35:59.278Z,1.90
2023-03-31T02:38:25.907Z,2.20
2023-03-31T02:40:52.299Z,2.30
2023-03-31T02:43:18.893Z,2.60
2023-03-31T02:45:47.223Z,2.47
2023-03-31T02:48:19.721Z,2.03
2023-03-31T02:51:01.864Z,2.40
2023-03-31T02:53:28.281Z,3.40
2023-03-31T02:55:54.648Z,3.00
2023-03-31T02:58:21.083Z,2.40
2023-03-31T03:01:06.043Z,2.27
2023-03-31T03:03:44.778Z,2.87
2023-03-31T03:06:13.705Z,2.33
2023-03-31T03:08:42.994Z,2.30
2023-03-31T03:11:12.692Z,2.20
2023-03-31T03:13:47.298Z,2.43
2023-03-31T03:16:14.052Z,2.60
2023-03-31T03:18:40.563Z,2.13
2023-03-31T03:21:07.398Z,2.27
2023-03-31T03:23:34.146Z,2.50
2023-03-31T03:26:00.662Z,2.33
2023-03-31T03:28:27.105Z,1.90
2023-03-31T03:30:54.612Z,2.10
2023-03-31T03:33:25.076Z,2.17
2023-03-31T03:35:51.827Z,2.10
2023-03-31T03:38:18.257Z,1.93
2023-03-31T03:40:44.689Z,1.60
2023-03-31T03:43:11.094Z,1.90
2023-03-31T03:45:37.556Z,1.97
2023-03-31T03:48:06.228Z,1.97
2023-03-31T03:50:35.497Z,1.80
2023-03-31T03:53:01.861Z,1.40
2023-03-31T03:55:29.028Z,1.33
2023-03-31T03:57:55.499Z,0.97
2023-03-31T04:00:21.951Z,1.27
2023-03-31T04:02:48.481Z,0.97
2023-03-31T04:05:14.916Z,0.90
2023-03-31T04:07:41.418Z,1.00
2023-03-31T04:10:08.284Z,0.80
2023-03-31T04:12:35.445Z,1.10
2023-03-31T04:15:01.929Z,1.43
2023-03-31T04:17:34.921Z,0.93
2023-03-31T04:20:05.253Z,1.30
2023-03-31T04:22:35.325Z,0.83
2023-03-31T04:25:05.129Z,1.47
2023-03-31T04:27:33.839Z,1.60
2023-03-31T04:30:00.193Z,1.67
2023-03-31T04:32:26.615Z,1.60
2023-03-31T04:35:02.608Z,2.10
2023-03-31T04:37:34.649Z,2.00
2023-03-31T04:40:08.157Z,2.40
2023-03-31T04:42:34.690Z,3.07
2023-03-31T04:45:01.152Z,3.03
2023-03-31T04:47:27.609Z,3.20
2023-03-31T04:49:54.093Z,4.40
2023-03-31T04:52:20.522Z,3.57
2023-03-31T04:54:46.903Z,4.23
2023-03-31T04:57:13.329Z,3.93
2023-03-31T04:59:39.721Z,3.77
2023-03-31T05:02:06.855Z,4.27
2023-03-31T05:04:33.310Z,3.33
2023-03-31T05:06:59.751Z,4.60
2023-03-31T05:09:26.168Z,3.97
2023-03-31T05:11:53.619Z,4.50
2023-03-31T05:14:20.930Z,3.80
2023-03-31T05:16:47.434Z,3.40
2023-03-31T05:19:13.977Z,3.37
2023-03-31T05:21:40.465Z,3.60
2023-03-31T05:24:07.091Z,2.63
2023-03-31T05:26:33.558Z,2.73
2023-03-31T05:28:59.950Z,3.10
2023-03-31T05:31:27.295Z,2.37
2023-03-31T05:33:53.764Z,2.67
2023-03-31T05:36:20.327Z,2.10
2023-03-31T05:38:47.772Z,2.20
2023-03-31T05:41:14.317Z,1.97
2023-03-31T05:43:40.767Z,2.03
2023-03-31T05:46:07.585Z,1.70
2023-03-31T05:48:34.603Z,1.80
2023-03-31T05:51:01.789Z,1.80
2023-03-31T05:53:28.238Z,1.40
2023-03-31T05:56:02.135Z,1.60
2023-03-31T05:58:28.992Z,1.60
2023-03-31T06:01:06.385Z,1.23
2023-03-31T06:03:33.851Z,1.57
2023-03-31T06:06:01.963Z,1.57
2023-03-31T06:08:28.979Z,1.47
2023-03-31T06:10:55.469Z,1.53
2023-03-31T06:13:21.911Z,1.30
2023-03-31T06:15:58.565Z,1.50
2023-03-31T06:18:26.651Z,1.10
2023-03-31T06:20:53.060Z,1.37
2023-03-31T06:23:19.562Z,1.40
2023-03-31T06:25:51.394Z,1.83
2023-03-31T06:28:18.488Z,1.10
2023-03-31T06:30:44.920Z,1.30
2023-03-31T06:33:11.717Z,1.00
2023-03-31T06:35:39.167Z,1.33
2023-03-31T06:38:06.547Z,1.20
2023-03-31T06:40:33.186Z,1.13
2023-03-31T06:42:59.930Z,1.17
2023-03-31T06:45:26.386Z,1.30
2023-03-31T06:47:53.083Z,1.10
2023-03-31T06:50:20.611Z,1.43
2023-03-31T06:52:48.459Z,1.20
2023-03-31T06:55:16.115Z,1.20
2023-03-31T06:57:42.579Z,1.40
2023-03-31T07:00:09.461Z,0.90
2023-03-31T07:02:37.251Z,0.93
2023-03-31T07:05:04.196Z,1.03
2023-03-31T07:07:33.988Z,1.40
2023-03-31T07:10:00.586Z,1.30
2023-03-31T07:12:27.075Z,1.67
2023-03-31T07:14:53.431Z,1.23
2023-03-31T07:17:21.174Z,1.13
2023-03-31T07:19:48.273Z,1.03
2023-03-31T07:22:15.699Z,1.30
2023-03-31T07:24:42.318Z,1.50
2023-03-31T07:27:08.738Z,1.50
2023-03-31T07:29:35.690Z,1.73
2023-03-31T07:32:02.190Z,1.43
2023-03-31T07:34:28.731Z,1.80
2023-03-31T07:36:56.475Z,1.77
2023-03-31T07:39:22.935Z,1.83
2023-03-31T07:41:49.372Z,1.93
2023-03-31T07:44:17.555Z,1.50
2023-03-31T07:46:44.005Z,2.00
2023-03-31T07:49:10.614Z,1.80
2023-03-31T07:51:36.985Z,1.50
2023-03-31T07:54:03.449Z,2.53
2023-03-31T07:56:29.941Z,2.47
2023-03-31T07:58:57.871Z,1.90
2023-03-31T08:01:26.314Z,1.80
2023-03-31T08:03:55.401Z,2.17
2023-03-31T08:06:24.166Z,1.77
2023-03-31T08:08:50.713Z,2.00
2023-03-31T08:11:19.157Z,3.10
2023-03-31T08:13:45.501Z,2.40
2023-03-31T08:16:12.066Z,2.90
2023-03-31T08:18:38.473Z,2.43
2023-03-31T08:21:05.235Z,2.57
2023-03-31T08:23:31.866Z,2.20
2023-03-31T08:26:13.190Z,2.90
2023-03-31T08:28:41.010Z,1.80
2023-03-31T08:31:08.412Z,2.17
2023-03-31T08:33:34.979Z,2.33
2023-03-31T08:36:02.769Z,2.13
2023-03-31T08:38:29.440Z,2.70
2023-03-31T08:41:02.278Z,2.20
2023-03-31T08:43:38.520Z,2.60
2023-03-31T08:46:05.103Z,2.67
2023-03-31T08:48:45.439Z,3.03
2023-03-31T08:51:16.588Z,2.40
2023-03-31T08:53:45.341Z,2.13
2023-03-31T08:56:16.996Z,2.33
2023-03-31T08:58:44.376Z,2.90
2023-03-31T09:01:54.735Z,2.80
2023-03-31T09:04:41.267Z,3.53
2023-03-31T09:07:12.493Z,3.03
2023-03-31T09:09:43.161Z,2.27
2023-03-31T09:12:26.343Z,2.67
2023-03-31T09:14:54.946Z,2.83
2023-03-31T09:17:25.435Z,3.10
2023-03-31T09:19:58.969Z,3.50
2023-03-31T09:22:27.774Z,2.57
2023-03-31T09:25:10.840Z,2.27
2023-03-31T09:27:41.384Z,2.57
2023-03-31T09:30:16.329Z,2.27
2023-03-31T09:32:42.993Z,2.87
2023-03-31T09:35:25.102Z,2.03
2023-03-31T09:37:52.301Z,1.93
2023-03-31T09:40:20.385Z,2.50
2023-03-31T09:42:48.223Z,2.83
2023-03-31T09:45:16.554Z,1.57
2023-03-31T09:47:44.898Z,2.43
2023-03-31T09:50:11.810Z,2.37
2023-03-31T09:52:40.359Z,2.63
2023-03-31T09:55:39.128Z,2.93
2023-03-31T09:58:07.633Z,2.23
2023-03-31T10:00:34.226Z,2.57
2023-03-31T10:03:07.752Z,2.47
2023-03-31T10:05:43.384Z,3.20
2023-03-31T10:08:09.844Z,2.40
2023-03-31T10:10:36.228Z,3.17
2023-03-31T10:13:07.397Z,2.70
2023-03-31T10:15:37.180Z,3.17
2023-03-31T10:18:03.996Z,3.10
2023-03-31T10:20:36.983Z,2.77
2023-03-31T10:23:14.654Z,3.37
2023-03-31T10:25:41.128Z,2.80
2023-03-31T10:28:11.526Z,2.57
2023-03-31T10:30:40.587Z,3.73
2023-03-31T10:33:21.850Z,2.87
2023-03-31T10:35:51.131Z,2.33
2023-03-31T10:38:22.769Z,2.97
2023-03-31T10:40:54.431Z,1.67
2023-03-31T10:43:21.959Z,2.30
2023-03-31T10:45:49.632Z,2.17
2023-03-31T10:48:19.132Z,1.57
2023-03-31T10:50:46.105Z,2.00
2023-03-31T10:53:14.031Z,1.83
2023-03-31T10:55:54.474Z,1.77
2023-03-31T10:58:34.209Z,2.10
2023-03-31T11:01:19.482Z,1.40
2023-03-31T11:03:55.260Z,1.90
2023-03-31T11:06:31.136Z,2.20
2023-03-31T11:09:07.864Z,1.50
2023-03-31T11:11:49.680Z,1.70
2023-03-31T11:14:25.228Z,1.60
2023-03-31T11:17:07.655Z,2.23
2023-03-31T11:19:51.928Z,1.70
2023-03-31T11:22:27.250Z,1.57
2023-03-31T11:25:16.909Z,2.10
2023-03-31T11:28:01.774Z,1.40
2023-03-31T11:30:51.629Z,2.33
2023-03-31T11:33:18.128Z,1.63
2023-03-31T11:36:04.517Z,1.67
2023-03-31T11:38:40.063Z,1.33
2023-03-31T11:41:19.161Z,1.70
2023-03-31T11:43:51.190Z,1.70
2023-03-31T11:46:20.556Z,1.97
2023-03-31T11:48:58.116Z,1.30
2023-03-31T11:51:31.105Z,1.20
2023-03-31T11:53:58.870Z,1.80
2023-03-31T11:56:28.335Z,1.40
2023-03-31T11:58:56.884Z,1.63
2023-03-31T12:01:42.318Z,2.50
2023-03-31T12:04:21.065Z,1.60
2023-03-31T12:06:49.368Z,1.83
2023-03-31T12:09:26.042Z,1.23
2023-03-31T12:12:03.708Z,1.77
2023-03-31T12:14:30.302Z,1.40
2023-03-31T12:17:11.073Z,1.37
2023-03-31T12:19:45.478Z,1.20
2023-03-31T12:22:16.787Z,1.63
2023-03-31T12:24:43.322Z,1.63
2023-03-31T12:27:27.830Z,1.13
2023-03-31T12:29:54.201Z,1.40
2023-03-31T12:32:26.104Z,1.40
2023-03-31T12:35:02.070Z,1.83
2023-03-31T12:37:45.660Z,1.20
2023-03-31T12:40:31.071Z,1.47
2023-03-31T12:43:00.608Z,1.23
2023-03-31T12:45:31.403Z,1.77
2023-03-31T12:48:16.920Z,1.60
2023-03-31T12:50:43.714Z,1.90
2023-03-31T12:53:16.475Z,2.43
2023-03-31T12:55:46.913Z,1.20
2023-03-31T12:58:22.508Z,1.80
2023-03-31T13:01:02.028Z,1.23
2023-03-31T13:03:34.619Z,1.60
2023-03-31T13:06:01.695Z,1.60
2023-03-31T13:08:46.872Z,1.23
2023-03-31T13:11:13.505Z,1.13
2023-03-31T13:14:00.335Z,1.10
2023-03-31T13:16:27.848Z,1.17
2023-03-31T13:18:55.216Z,1.00
2023-03-31T13:21:23.738Z,1.20
2023-03-31T13:23:50.463Z,1.10
2023-03-31T13:26:36.799Z,1.00
2023-03-31T13:29:10.017Z,1.20
2023-03-31T13:31:55.192Z,1.40
2023-03-31T13:34:21.964Z,1.33
2023-03-31T13:37:08.620Z,1.30
2023-03-31T13:39:42.975Z,1.77
2023-03-31T13:42:28.113Z,1.40
2023-03-31T13:44:55.552Z,1.27
2023-03-31T13:47:40.366Z,1.00
2023-03-31T13:50:36.687Z,1.30
2023-03-31T13:53:28.632Z,1.27
2023-03-31T13:56:04.437Z,1.07
2023-03-31T13:58:35.430Z,1.40
2023-03-31T14:01:25.630Z,1.57
2023-03-31T14:03:52.508Z,1.23
2023-03-31T14:06:37.899Z,1.47
2023-03-31T14:09:07.789Z,1.43
2023-03-31T14:11:34.307Z,1.80
2023-03-31T14:14:00.845Z,1.77
2023-03-31T14:16:28.782Z,1.63
2023-03-31T14:19:01.190Z,1.30
2023-03-31T14:21:27.701Z,1.70
2023-03-31T14:24:00.158Z,1.47
2023-03-31T14:26:32.802Z,1.50
2023-03-31T14:29:12.739Z,1.80
2023-03-31T14:31:50.230Z,1.67
2023-03-31T14:34:27.150Z,1.50
2023-03-31T14:37:00.994Z,2.27
2023-03-31T14:39:30.196Z,2.50
2023-03-31T14:41:59.613Z,1.83
2023-03-31T14:44:26.045Z,2.60
2023-03-31T14:46:52.497Z,2.20
2023-03-31T14:49:21.507Z,2.10
2023-03-31T14:51:48.724Z,2.00
2023-03-31T14:54:19.328Z,1.90
2023-03-31T14:56:49.629Z,1.97
2023-03-31T14:59:20.302Z,2.23
2023-03-31T15:01:47.294Z,2.23
2023-03-31T15:04:15.900Z,2.00
2023-03-31T15:06:44.957Z,2.07
2023-03-31T15:09:15.394Z,1.87
2023-03-31T15:11:41.829Z,2.50
2023-03-31T15:14:09.896Z,2.07
2023-03-31T15:16:42.341Z,2.60
2023-03-31T15:19:12.551Z,2.27
2023-03-31T15:21:39.291Z,2.57
2023-03-31T15:24:06.386Z,2.07
2023-03-31T15:26:41.293Z,2.10
2023-03-31T15:29:11.806Z,2.37
2023-03-31T15:31:41.078Z,2.33
2023-03-31T15:34:28.324Z,1.97
2023-03-31T15:36:55.819Z,1.80
2023-03-31T15:39:23.545Z,2.03
2023-03-31T15:41:50.286Z,2.50
2023-03-31T15:44:34.997Z,2.50
2023-03-31T15:47:16.852Z,2.20
2023-03-31T15:49:50.971Z,2.50
2023-03-31T15:52:30.594Z,2.50
2023-03-31T15:54:57.651Z,2.27
2023-03-31T15:57:31.615Z,2.63
2023-03-31T16:00:00.454Z,1.80
2023-03-31T16:02:37.969Z,2.27
2023-03-31T16:05:10.393Z,1.93
2023-03-31T16:07:37.470Z,2.27
2023-03-31T16:10:21.692Z,1.90
2023-03-31T16:12:54.278Z,2.07
2023-03-31T16:15:24.058Z,1.97
2023-03-31T16:17:54.253Z,1.80
2023-03-31T16:20:29.166Z,1.80
2023-03-31T16:22:58.794Z,1.50
2023-03-31T16:25:26.259Z,1.93
2023-03-31T16:28:02.070Z,1.47
2023-03-31T16:30:39.222Z,2.27
2023-03-31T16:33:07.953Z,2.10
2023-03-31T16:35:38.617Z,1.50
2023-03-31T16:38:06.141Z,1.77
2023-03-31T16:40:39.876Z,1.90
2023-03-31T16:43:09.110Z,1.87
2023-03-31T16:45:35.594Z,1.90
2023-03-31T16:48:12.745Z,2.17
2023-03-31T16:50:42.639Z,2.00
2023-03-31T16:53:09.235Z,2.00
2023-03-31T16:55:35.635Z,2.37
2023-03-31T16:58:03.689Z,2.00
2023-03-31T17:00:31.495Z,2.30
2023-03-31T17:02:58.270Z,2.60
2023-03-31T17:05:25.509Z,2.53
2023-03-31T17:07:52.291Z,2.40
2023-03-31T17:10:18.890Z,2.20
2023-03-31T17:12:45.419Z,2.17
2023-03-31T17:15:12.101Z,2.30
2023-03-31T17:17:38.785Z,2.20
2023-03-31T17:20:06.672Z,2.40
2023-03-31T17:22:33.299Z,2.00
2023-03-31T17:25:00.029Z,1.80
2023-03-31T17:27:27.386Z,1.90
2023-03-31T17:29:54.070Z,1.57
2023-03-31T17:32:20.960Z,2.03
2023-03-31T17:34:48.637Z,2.00
2023-03-31T17:37:16.826Z,1.63
2023-03-31T17:39:43.457Z,1.90
2023-03-31T17:42:10.255Z,1.63
2023-03-31T17:44:36.768Z,1.50
2023-03-31T17:47:03.191Z,2.03
2023-03-31T17:49:29.773Z,1.67
2023-03-31T17:51:56.204Z,1.77
2023-03-31T17:54:23.665Z,1.50
2023-03-31T17:56:50.334Z,2.07
2023-03-31T17:59:18.252Z,2.20
2023-03-31T18:01:45.114Z,1.90
2023-03-31T18:04:11.654Z,2.13
2023-03-31T18:06:38.773Z,3.30
2023-03-31T18:09:06.080Z,2.00
2023-03-31T18:11:32.773Z,1.90
2023-03-31T18:14:01.984Z,2.10
2023-03-31T18:16:29.600Z,1.97
2023-03-31T18:18:56.075Z,2.60
2023-03-31T18:21:23.961Z,2.63
2023-03-31T18:23:55.130Z,3.00
2023-03-31T18:26:26.013Z,2.43
2023-03-31T18:28:52.400Z,1.83
2023-03-31T18:31:18.956Z,2.73
2023-03-31T18:33:45.323Z,2.67
2023-03-31T18:36:21.577Z,2.77
2023-03-31T18:38:48.705Z,2.77
2023-03-31T18:41:15.703Z,2.30
2023-03-31T18:43:42.019Z,2.67
2023-03-31T18:46:08.708Z,2.23
2023-03-31T18:48:35.157Z,2.53
2023-03-31T18:51:01.905Z,2.47
2023-03-31T18:53:28.607Z,2.97
2023-03-31T18:55:56.859Z,2.60
2023-03-31T18:58:23.725Z,2.70
2023-03-31T19:00:50.600Z,2.40
2023-03-31T19:03:17.154Z,2.70
2023-03-31T19:05:43.855Z,3.23
2023-03-31T19:08:10.552Z,1.60
2023-03-31T19:10:36.946Z,2.50
2023-03-31T19:13:03.422Z,2.47
2023-03-31T19:15:29.968Z,1.97
2023-03-31T19:17:56.588Z,2.97
2023-03-31T19:20:23.321Z,2.20
2023-03-31T19:22:50.870Z,2.70
2023-03-31T19:25:18.669Z,2.87
2023-03-31T19:27:46.119Z,2.97
2023-03-31T19:30:21.220Z,2.80
2023-03-31T19:32:48.980Z,3.13
2023-03-31T19:35:16.081Z,2.83
2023-03-31T19:37:42.490Z,3.43
2023-03-31T19:40:09.384Z,3.67
2023-03-31T19:42:35.939Z,3.13
2023-03-31T19:45:02.347Z,3.07
2023-03-31T19:47:28.747Z,2.43
2023-03-31T19:49:55.283Z,3.37
2023-03-31T19:52:21.798Z,2.97
2023-03-31T19:54:49.543Z,2.50
2023-03-31T19:57:16.129Z,3.60
2023-03-31T19:59:42.569Z,2.90
2023-03-31T20:02:12.770Z,3.10
2023-03-31T20:04:39.573Z,3.33
2023-03-31T20:07:06.068Z,2.90
2023-03-31T20:09:32.785Z,2.50
2023-03-31T20:11:59.265Z,3.53
2023-03-31T20:14:25.749Z,2.63
2023-03-31T20:16:52.853Z,2.57
2023-03-31T20:19:19.308Z,3.27
2023-03-31T20:21:45.911Z,2.87
2023-03-31T20:24:17.016Z,4.03
2023-03-31T20:26:43.565Z,3.90
2023-03-31T20:29:10.534Z,3.77
2023-03-31T20:31:37.482Z,3.87
2023-03-31T20:34:05.915Z,3.90
2023-03-31T20:36:32.511Z,4.03
2023-03-31T20:38:59.847Z,3.67
2023-03-31T20:41:28.358Z,3.20
2023-03-31T20:43:55.095Z,3.90
2023-03-31T20:46:22.339Z,4.60
2023-03-31T20:48:51.285Z,4.50
2023-03-31T20:51:19.211Z,3.90
2023-03-31T20:53:47.626Z,3.63
2023-03-31T20:56:15.454Z,3.53
2023-03-31T20:58:44.263Z,3.07
2023-03-31T21:01:11.148Z,4.27
2023-03-31T21:03:37.834Z,3.30
2023-03-31T21:06:05.518Z,3.17
2023-03-31T21:08:32.334Z,2.77
2023-03-31T21:10:59.498Z,3.20
2023-03-31T21:13:26.835Z,2.03
2023-03-31T21:15:56.710Z,3.43
2023-03-31T21:18:23.319Z,3.50
2023-03-31T21:20:54.193Z,3.57
2023-03-31T21:23:20.980Z,3.30
2023-03-31T21:25:48.824Z,3.77
2023-03-31T21:28:20.468Z,3.67
2023-03-31T21:30:54.004Z,3.17
2023-03-31T21:33:20.987Z,3.43
2023-03-31T21:35:47.784Z,3.57
2023-03-31T21:38:14.739Z,3.73
2023-03-31T21:40:42.588Z,4.30
2023-03-31T21:43:09.210Z,4.53
2023-03-31T21:45:37.181Z,4.53
2023-03-31T21:48:04.212Z,4.70
2023-03-31T21:50:30.797Z,4.10
2023-03-31T21:52:57.375Z,4.23
2023-03-31T21:55:23.860Z,4.80
2023-03-31T21:57:50.237Z,6.30
2023-03-31T22:00:16.813Z,5.33
2023-03-31T22:02:43.626Z,4.80
2023-03-31T22:05:10.933Z,7.13
2023-03-31T22:07:37.905Z,6.30
2023-03-31T22:10:04.744Z,5.37
2023-03-31T22:12:31.552Z,5.73
2023-03-31T22:14:58.250Z,6.00
2023-03-31T22:17:25.160Z,6.27
2023-03-31T22:19:51.530Z,6.00
2023-03-31T22:22:18.283Z,5.27
2023-03-31T22:24:44.688Z,6.80
2023-03-31T22:27:11.357Z,7.33
2023-03-31T22:29:38.249Z,7.50
2023-03-31T22:32:04.761Z,5.80
2023-03-31T22:34:31.433Z,8.37
2023-03-31T22:36:58.176Z,7.27
2023-03-31T22:39:25.342Z,6.87
2023-03-31T22:41:51.960Z,8.00
2023-03-31T22:44:18.510Z,7.17
2023-03-31T22:46:49.862Z,8.23
2023-03-31T22:49:16.539Z,8.03
2023-03-31T22:51:45.057Z,8.03
2023-03-31T22:54:15.540Z,7.63
2023-03-31T22:56:43.042Z,8.00
2023-03-31T22:59:10.410Z,7.90
2023-03-31T23:01:36.922Z,7.53
2023-03-31T23:04:04.293Z,9.20
2023-03-31T23:06:31.702Z,8.00
2023-03-31T23:09:00.187Z,8.50
2023-03-31T23:11:27.357Z,8.30
2023-03-31T23:13:53.771Z,9.63
2023-03-31T23:16:21.796Z,7.70
2023-03-31T23:18:48.783Z,8.60
2023-03-31T23:21:16.271Z,7.80
2023-03-31T23:23:42.965Z,6.97
2023-03-31T23:26:09.643Z,7.73
2023-03-31T23:28:37.196Z,6.73
2023-03-31T23:31:03.651Z,7.33
2023-03-31T23:33:30.567Z,6.23
2023-03-31T23:36:01.036Z,6.67
2023-03-31T23:38:27.715Z,7.20
2023-03-31T23:40:54.137Z,6.53
2023-03-31T23:43:20.558Z,5.93
2023-03-31T23:45:47.089Z,7.10
2023-03-31T23:48:13.463Z,7.47
2023-03-31T23:50:39.863Z,5.33
2023-03-31T23:53:06.367Z,7.10
2023-03-31T23:55:33.121Z,5.73
2023-03-31T23:57:59.758Z,6.40
